sensor_id;sensor_type;location;lat;lon;timestamp;P1;durP1;ratioP1;P2;durP2;ratioP2
39442;SDS011;25147;52.142;9.960;2023-10-13T00:01:53;13.13;;;11.20;;
39442;SDS011;25147;52.142;9.960;2023-10-13T00:04:22;12.05;;;10.25;;
39442;SDS011;25147;52.142;9.960;2023-10-13T00:06:50;13.93;;;10.35;;
39442;SDS011;25147;52.142;9.960;2023-10-13T00:09:17;12.55;;;10.88;;
39442;SDS011;25147;52.142;9.960;2023-10-13T00:11:45;13.60;;;10.65;;
39442;SDS011;25147;52.142;9.960;2023-10-13T00:14:12;10.82;;;9.63;;
39442;SDS011;25147;52.142;9.960;2023-10-13T00:16:42;10.88;;;9.77;;
39442;SDS011;25147;52.142;9.960;2023-10-13T00:19:32;11.82;;;9.73;;
39442;SDS011;25147;52.142;9.960;2023-10-13T00:22:06;12.98;;;9.10;;
39442;SDS011;25147;52.142;9.960;2023-10-13T00:24:50;13.55;;;10.05;;
39442;SDS011;25147;52.142;9.960;2023-10-13T00:27:40;11.13;;;9.32;;
39442;SDS011;25147;52.142;9.960;2023-10-13T00:30:17;11.07;;;8.18;;
39442;SDS011;25147;52.142;9.960;2023-10-13T00:32:58;10.25;;;8.43;;
39442;SDS011;25147;52.142;9.960;2023-10-13T00:38:35;10.38;;;8.05;;
39442;SDS011;25147;52.142;9.960;2023-10-13T00:41:02;9.65;;;8.25;;
39442;SDS011;25147;52.142;9.960;2023-10-13T00:43:44;9.75;;;8.75;;
39442;SDS011;25147;52.142;9.960;2023-10-13T00:46:29;10.40;;;8.75;;
39442;SDS011;25147;52.142;9.960;2023-10-13T00:48:59;9.05;;;8.15;;
39442;SDS011;25147;52.142;9.960;2023-10-13T00:51:27;10.57;;;8.82;;
39442;SDS011;25147;52.142;9.960;2023-10-13T00:54:03;10.30;;;9.30;;
39442;SDS011;25147;52.142;9.960;2023-10-13T00:56:33;9.57;;;8.65;;
39442;SDS011;25147;52.142;9.960;2023-10-13T00:59:06;11.27;;;8.88;;
39442;SDS011;25147;52.142;9.960;2023-10-13T01:01:35;10.82;;;9.68;;
39442;SDS011;25147;52.142;9.960;2023-10-13T01:04:01;11.15;;;9.32;;
39442;SDS011;25147;52.142;9.960;2023-10-13T01:06:30;12.00;;;10.40;;
39442;SDS011;25147;52.142;9.960;2023-10-13T01:08:57;11.70;;;10.45;;
39442;SDS011;25147;52.142;9.960;2023-10-13T01:11:38;13.13;;;11.45;;
39442;SDS011;25147;52.142;9.960;2023-10-13T01:14:08;12.45;;;11.15;;
39442;SDS011;25147;52.142;9.960;2023-10-13T01:16:36;12.23;;;10.85;;
39442;SDS011;25147;52.142;9.960;2023-10-13T01:19:05;11.70;;;10.25;;
39442;SDS011;25147;52.142;9.960;2023-10-13T01:21:35;12.93;;;9.73;;
39442;SDS011;25147;52.142;9.960;2023-10-13T01:24:02;12.07;;;10.88;;
39442;SDS011;25147;52.142;9.960;2023-10-13T01:26:33;13.10;;;9.73;;
39442;SDS011;25147;52.142;9.960;2023-10-13T01:29:04;14.20;;;11.15;;
39442;SDS011;25147;52.142;9.960;2023-10-13T01:31:39;11.20;;;10.07;;
39442;SDS011;25147;52.142;9.960;2023-10-13T01:34:11;10.98;;;9.95;;
39442;SDS011;25147;52.142;9.960;2023-10-13T01:36:40;13.20;;;11.00;;
39442;SDS011;25147;52.142;9.960;2023-10-13T01:39:08;10.95;;;9.65;;
39442;SDS011;25147;52.142;9.960;2023-10-13T01:41:36;13.48;;;11.18;;
39442;SDS011;25147;52.142;9.960;2023-10-13T01:44:07;11.00;;;9.90;;
39442;SDS011;25147;52.142;9.960;2023-10-13T01:46:39;11.63;;;10.23;;
39442;SDS011;25147;52.142;9.960;2023-10-13T01:49:07;16.85;;;10.35;;
39442;SDS011;25147;52.142;9.960;2023-10-13T01:51:34;11.57;;;9.85;;
39442;SDS011;25147;52.142;9.960;2023-10-13T01:54:00;11.57;;;10.38;;
39442;SDS011;25147;52.142;9.960;2023-10-13T01:56:29;11.43;;;10.30;;
39442;SDS011;25147;52.142;9.960;2023-10-13T01:58:55;11.60;;;9.70;;
39442;SDS011;25147;52.142;9.960;2023-10-13T02:01:22;11.52;;;10.32;;
39442;SDS011;25147;52.142;9.960;2023-10-13T02:03:58;13.10;;;10.43;;
39442;SDS011;25147;52.142;9.960;2023-10-13T02:06:28;12.52;;;10.75;;
39442;SDS011;25147;52.142;9.960;2023-10-13T02:08:58;12.15;;;10.38;;
39442;SDS011;25147;52.142;9.960;2023-10-13T02:11:39;10.82;;;9.73;;
39442;SDS011;25147;52.142;9.960;2023-10-13T02:14:07;10.43;;;9.38;;
39442;SDS011;25147;52.142;9.960;2023-10-13T02:16:37;10.90;;;9.88;;
39442;SDS011;25147;52.142;9.960;2023-10-13T02:19:03;10.45;;;9.43;;
39442;SDS011;25147;52.142;9.960;2023-10-13T02:21:30;10.13;;;8.93;;
39442;SDS011;25147;52.142;9.960;2023-10-13T02:24:04;10.38;;;9.38;;
39442;SDS011;25147;52.142;9.960;2023-10-13T02:26:38;13.52;;;9.30;;
39442;SDS011;25147;52.142;9.960;2023-10-13T02:29:05;9.45;;;8.55;;
39442;SDS011;25147;52.142;9.960;2023-10-13T02:31:34;11.00;;;8.98;;
39442;SDS011;25147;52.142;9.960;2023-10-13T02:34:01;10.13;;;8.77;;
39442;SDS011;25147;52.142;9.960;2023-10-13T02:36:31;10.02;;;9.00;;
39442;SDS011;25147;52.142;9.960;2023-10-13T02:39:02;9.40;;;8.45;;
39442;SDS011;25147;52.142;9.960;2023-10-13T02:41:33;10.90;;;8.38;;
39442;SDS011;25147;52.142;9.960;2023-10-13T02:44:04;11.38;;;8.82;;
39442;SDS011;25147;52.142;9.960;2023-10-13T02:46:33;9.18;;;8.02;;
39442;SDS011;25147;52.142;9.960;2023-10-13T02:49:04;9.77;;;7.88;;
39442;SDS011;25147;52.142;9.960;2023-10-13T02:51:35;9.85;;;7.38;;
39442;SDS011;25147;52.142;9.960;2023-10-13T02:54:03;8.40;;;7.35;;
39442;SDS011;25147;52.142;9.960;2023-10-13T02:56:36;9.07;;;8.15;;
39442;SDS011;25147;52.142;9.960;2023-10-13T02:59:15;12.55;;;7.97;;
39442;SDS011;25147;52.142;9.960;2023-10-13T03:01:45;9.32;;;7.65;;
39442;SDS011;25147;52.142;9.960;2023-10-13T03:04:12;11.35;;;7.63;;
39442;SDS011;25147;52.142;9.960;2023-10-13T03:06:38;7.95;;;7.25;;
39442;SDS011;25147;52.142;9.960;2023-10-13T03:09:07;8.48;;;7.30;;
39442;SDS011;25147;52.142;9.960;2023-10-13T03:11:40;8.18;;;7.25;;
39442;SDS011;25147;52.142;9.960;2023-10-13T03:14:15;11.25;;;7.38;;
39442;SDS011;25147;52.142;9.960;2023-10-13T03:16:50;10.38;;;7.47;;
39442;SDS011;25147;52.142;9.960;2023-10-13T03:19:17;11.40;;;6.95;;
39442;SDS011;25147;52.142;9.960;2023-10-13T03:21:44;10.93;;;7.88;;
39442;SDS011;25147;52.142;9.960;2023-10-13T03:24:20;8.35;;;7.20;;
39442;SDS011;25147;52.142;9.960;2023-10-13T03:26:58;10.35;;;7.30;;
39442;SDS011;25147;52.142;9.960;2023-10-13T03:29:35;8.20;;;7.38;;
39442;SDS011;25147;52.142;9.960;2023-10-13T03:32:02;8.38;;;7.00;;
39442;SDS011;25147;52.142;9.960;2023-10-13T03:34:45;10.27;;;7.30;;
39442;SDS011;25147;52.142;9.960;2023-10-13T03:37:36;8.50;;;7.22;;
39442;SDS011;25147;52.142;9.960;2023-10-13T03:40:04;7.88;;;7.13;;
39442;SDS011;25147;52.142;9.960;2023-10-13T03:42:41;9.07;;;7.45;;
39442;SDS011;25147;52.142;9.960;2023-10-13T03:45:15;9.48;;;7.13;;
39442;SDS011;25147;52.142;9.960;2023-10-13T03:47:44;9.45;;;8.38;;
39442;SDS011;25147;52.142;9.960;2023-10-13T03:50:11;9.43;;;7.43;;
39442;SDS011;25147;52.142;9.960;2023-10-13T03:52:54;10.02;;;7.50;;
39442;SDS011;25147;52.142;9.960;2023-10-13T03:55:23;8.32;;;7.50;;
39442;SDS011;25147;52.142;9.960;2023-10-13T03:57:54;11.82;;;7.45;;
39442;SDS011;25147;52.142;9.960;2023-10-13T04:00:23;8.63;;;7.40;;
39442;SDS011;25147;52.142;9.960;2023-10-13T04:02:50;11.10;;;7.95;;
39442;SDS011;25147;52.142;9.960;2023-10-13T04:05:31;8.77;;;7.88;;
39442;SDS011;25147;52.142;9.960;2023-10-13T04:08:06;12.13;;;8.50;;
39442;SDS011;25147;52.142;9.960;2023-10-13T04:10:51;8.57;;;7.70;;
39442;SDS011;25147;52.142;9.960;2023-10-13T04:13:36;11.15;;;9.18;;
39442;SDS011;25147;52.142;9.960;2023-10-13T04:16:22;10.55;;;7.93;;
39442;SDS011;25147;52.142;9.960;2023-10-13T04:19:01;10.30;;;9.15;;
39442;SDS011;25147;52.142;9.960;2023-10-13T04:21:35;11.32;;;8.52;;
39442;SDS011;25147;52.142;9.960;2023-10-13T04:24:16;9.15;;;8.25;;
39442;SDS011;25147;52.142;9.960;2023-10-13T04:27:00;9.50;;;8.60;;
39442;SDS011;25147;52.142;9.960;2023-10-13T04:29:52;9.18;;;8.27;;
39442;SDS011;25147;52.142;9.960;2023-10-13T04:32:24;10.02;;;9.02;;
39442;SDS011;25147;52.142;9.960;2023-10-13T04:34:59;11.10;;;9.38;;
39442;SDS011;25147;52.142;9.960;2023-10-13T04:37:34;9.85;;;8.77;;
39442;SDS011;25147;52.142;9.960;2023-10-13T04:40:14;9.32;;;8.40;;
39442;SDS011;25147;52.142;9.960;2023-10-13T04:42:43;10.13;;;8.98;;
39442;SDS011;25147;52.142;9.960;2023-10-13T04:45:22;10.20;;;9.20;;
39442;SDS011;25147;52.142;9.960;2023-10-13T04:48:05;11.88;;;8.98;;
39442;SDS011;25147;52.142;9.960;2023-10-13T04:50:58;10.75;;;8.80;;
39442;SDS011;25147;52.142;9.960;2023-10-13T04:53:40;10.27;;;9.15;;
39442;SDS011;25147;52.142;9.960;2023-10-13T04:56:21;9.68;;;8.65;;
39442;SDS011;25147;52.142;9.960;2023-10-13T04:59:05;12.20;;;9.13;;
39442;SDS011;25147;52.142;9.960;2023-10-13T05:02:01;9.70;;;8.50;;
39442;SDS011;25147;52.142;9.960;2023-10-13T05:04:43;13.23;;;9.13;;
39442;SDS011;25147;52.142;9.960;2023-10-13T05:07:47;11.45;;;9.75;;
39442;SDS011;25147;52.142;9.960;2023-10-13T05:10:32;9.82;;;8.82;;
39442;SDS011;25147;52.142;9.960;2023-10-13T05:13:18;11.85;;;9.65;;
39442;SDS011;25147;52.142;9.960;2023-10-13T05:16:02;10.73;;;9.73;;
39442;SDS011;25147;52.142;9.960;2023-10-13T05:18:47;10.35;;;9.18;;
39442;SDS011;25147;52.142;9.960;2023-10-13T05:21:34;12.75;;;9.27;;
39442;SDS011;25147;52.142;9.960;2023-10-13T05:24:19;13.32;;;9.80;;
39442;SDS011;25147;52.142;9.960;2023-10-13T05:27:03;12.07;;;9.93;;
39442;SDS011;25147;52.142;9.960;2023-10-13T05:29:47;10.13;;;8.93;;
39442;SDS011;25147;52.142;9.960;2023-10-13T05:32:32;11.27;;;9.30;;
39442;SDS011;25147;52.142;9.960;2023-10-13T05:35:16;9.95;;;8.45;;
39442;SDS011;25147;52.142;9.960;2023-10-13T05:38:03;11.60;;;8.95;;
39442;SDS011;25147;52.142;9.960;2023-10-13T05:40:52;11.73;;;8.45;;
39442;SDS011;25147;52.142;9.960;2023-10-13T05:43:37;9.52;;;8.23;;
39442;SDS011;25147;52.142;9.960;2023-10-13T05:46:30;11.98;;;8.50;;
39442;SDS011;25147;52.142;9.960;2023-10-13T05:49:26;10.45;;;8.38;;
39442;SDS011;25147;52.142;9.960;2023-10-13T05:52:14;11.23;;;9.05;;
39442;SDS011;25147;52.142;9.960;2023-10-13T05:55:02;10.23;;;9.13;;
39442;SDS011;25147;52.142;9.960;2023-10-13T05:57:47;14.25;;;9.38;;
39442;SDS011;25147;52.142;9.960;2023-10-13T06:00:37;10.27;;;9.18;;
39442;SDS011;25147;52.142;9.960;2023-10-13T06:03:22;11.27;;;9.35;;
39442;SDS011;25147;52.142;9.960;2023-10-13T06:06:07;12.48;;;9.63;;
39442;SDS011;25147;52.142;9.960;2023-10-13T06:08:51;14.30;;;9.68;;
39442;SDS011;25147;52.142;9.960;2023-10-13T06:11:37;11.07;;;9.18;;
39442;SDS011;25147;52.142;9.960;2023-10-13T06:14:21;12.35;;;9.25;;
39442;SDS011;25147;52.142;9.960;2023-10-13T06:17:06;13.05;;;9.25;;
39442;SDS011;25147;52.142;9.960;2023-10-13T06:19:50;13.68;;;9.63;;
39442;SDS011;25147;52.142;9.960;2023-10-13T06:22:34;14.20;;;11.15;;
39442;SDS011;25147;52.142;9.960;2023-10-13T06:25:18;14.25;;;10.50;;
39442;SDS011;25147;52.142;9.960;2023-10-13T06:28:05;11.63;;;10.38;;
39442;SDS011;25147;52.142;9.960;2023-10-13T06:30:56;13.57;;;10.70;;
39442;SDS011;25147;52.142;9.960;2023-10-13T06:33:26;13.93;;;10.57;;
39442;SDS011;25147;52.142;9.960;2023-10-13T06:35:56;15.60;;;11.75;;
39442;SDS011;25147;52.142;9.960;2023-10-13T06:38:23;13.80;;;10.35;;
39442;SDS011;25147;52.142;9.960;2023-10-13T06:40:56;15.13;;;9.98;;
39442;SDS011;25147;52.142;9.960;2023-10-13T06:43:24;11.77;;;10.65;;
39442;SDS011;25147;52.142;9.960;2023-10-13T06:45:57;13.60;;;10.63;;
39442;SDS011;25147;52.142;9.960;2023-10-13T06:48:27;15.20;;;11.68;;
39442;SDS011;25147;52.142;9.960;2023-10-13T06:50:58;12.93;;;11.60;;
39442;SDS011;25147;52.142;9.960;2023-10-13T06:53:30;15.60;;;11.82;;
39442;SDS011;25147;52.142;9.960;2023-10-13T06:56:02;14.13;;;12.07;;
39442;SDS011;25147;52.142;9.960;2023-10-13T06:58:53;13.98;;;10.88;;
39442;SDS011;25147;52.142;9.960;2023-10-13T07:01:25;12.35;;;10.93;;
39442;SDS011;25147;52.142;9.960;2023-10-13T07:04:05;12.98;;;11.52;;
39442;SDS011;25147;52.142;9.960;2023-10-13T07:06:39;13.65;;;11.63;;
39442;SDS011;25147;52.142;9.960;2023-10-13T07:09:09;13.85;;;11.75;;
39442;SDS011;25147;52.142;9.960;2023-10-13T07:11:53;14.63;;;11.10;;
39442;SDS011;25147;52.142;9.960;2023-10-13T07:14:27;17.77;;;12.40;;
39442;SDS011;25147;52.142;9.960;2023-10-13T07:16:57;16.52;;;11.40;;
39442;SDS011;25147;52.142;9.960;2023-10-13T07:19:26;13.85;;;11.05;;
39442;SDS011;25147;52.142;9.960;2023-10-13T07:21:54;17.75;;;10.55;;
39442;SDS011;25147;52.142;9.960;2023-10-13T07:24:24;18.75;;;11.15;;
39442;SDS011;25147;52.142;9.960;2023-10-13T07:26:52;14.18;;;10.65;;
39442;SDS011;25147;52.142;9.960;2023-10-13T07:29:29;13.10;;;10.65;;
39442;SDS011;25147;52.142;9.960;2023-10-13T07:31:59;15.98;;;11.20;;
39442;SDS011;25147;52.142;9.960;2023-10-13T07:34:28;12.13;;;10.52;;
39442;SDS011;25147;52.142;9.960;2023-10-13T07:36:57;13.05;;;10.30;;
39442;SDS011;25147;52.142;9.960;2023-10-13T07:39:25;15.60;;;10.23;;
39442;SDS011;25147;52.142;9.960;2023-10-13T07:41:59;12.13;;;10.32;;
39442;SDS011;25147;52.142;9.960;2023-10-13T07:44:35;14.63;;;9.60;;
39442;SDS011;25147;52.142;9.960;2023-10-13T07:47:11;16.52;;;10.13;;
39442;SDS011;25147;52.142;9.960;2023-10-13T07:49:39;13.98;;;9.05;;
39442;SDS011;25147;52.142;9.960;2023-10-13T07:52:07;11.15;;;8.55;;
39442;SDS011;25147;52.142;9.960;2023-10-13T07:54:52;18.00;;;9.57;;
39442;SDS011;25147;52.142;9.960;2023-10-13T07:57:25;11.73;;;8.50;;
39442;SDS011;25147;52.142;9.960;2023-10-13T07:59:56;11.30;;;8.07;;
39442;SDS011;25147;52.142;9.960;2023-10-13T08:02:37;11.23;;;8.10;;
39442;SDS011;25147;52.142;9.960;2023-10-13T08:05:17;11.20;;;7.75;;
39442;SDS011;25147;52.142;9.960;2023-10-13T08:07:50;13.38;;;7.50;;
39442;SDS011;25147;52.142;9.960;2023-10-13T08:10:21;12.60;;;7.35;;
39442;SDS011;25147;52.142;9.960;2023-10-13T08:12:55;8.15;;;6.47;;
39442;SDS011;25147;52.142;9.960;2023-10-13T08:15:26;9.77;;;6.35;;
39442;SDS011;25147;52.142;9.960;2023-10-13T08:17:58;6.78;;;6.05;;
39442;SDS011;25147;52.142;9.960;2023-10-13T08:20:30;6.45;;;5.78;;
39442;SDS011;25147;52.142;9.960;2023-10-13T08:23:04;6.20;;;5.50;;
39442;SDS011;25147;52.142;9.960;2023-10-13T08:25:39;7.38;;;6.20;;
39442;SDS011;25147;52.142;9.960;2023-10-13T08:28:20;6.93;;;5.57;;
39442;SDS011;25147;52.142;9.960;2023-10-13T08:31:06;8.25;;;5.28;;
39442;SDS011;25147;52.142;9.960;2023-10-13T08:33:40;7.65;;;4.95;;
39442;SDS011;25147;52.142;9.960;2023-10-13T08:36:12;6.30;;;5.15;;
39442;SDS011;25147;52.142;9.960;2023-10-13T08:38:53;5.97;;;4.90;;
39442;SDS011;25147;52.142;9.960;2023-10-13T08:41:22;6.18;;;4.72;;
39442;SDS011;25147;52.142;9.960;2023-10-13T08:43:55;9.68;;;5.18;;
39442;SDS011;25147;52.142;9.960;2023-10-13T08:46:31;4.93;;;4.43;;
39442;SDS011;25147;52.142;9.960;2023-10-13T08:49:17;5.05;;;4.55;;
39442;SDS011;25147;52.142;9.960;2023-10-13T08:51:48;7.40;;;4.57;;
39442;SDS011;25147;52.142;9.960;2023-10-13T08:54:30;7.05;;;4.57;;
39442;SDS011;25147;52.142;9.960;2023-10-13T08:57:04;5.03;;;4.30;;
39442;SDS011;25147;52.142;9.960;2023-10-13T08:59:58;7.05;;;3.65;;
39442;SDS011;25147;52.142;9.960;2023-10-13T09:02:45;9.52;;;4.57;;
39442;SDS011;25147;52.142;9.960;2023-10-13T09:05:45;8.55;;;4.07;;
39442;SDS011;25147;52.142;9.960;2023-10-13T09:08:26;7.05;;;4.10;;
39442;SDS011;25147;52.142;9.960;2023-10-13T09:11:01;6.88;;;4.03;;
39442;SDS011;25147;52.142;9.960;2023-10-13T09:13:36;5.57;;;3.70;;
39442;SDS011;25147;52.142;9.960;2023-10-13T09:16:12;6.90;;;4.10;;
39442;SDS011;25147;52.142;9.960;2023-10-13T09:18:48;5.75;;;3.97;;
39442;SDS011;25147;52.142;9.960;2023-10-13T09:21:18;4.47;;;3.90;;
39442;SDS011;25147;52.142;9.960;2023-10-13T09:24:09;7.03;;;3.60;;
39442;SDS011;25147;52.142;9.960;2023-10-13T09:26:52;4.63;;;3.80;;
39442;SDS011;25147;52.142;9.960;2023-10-13T09:29:21;5.78;;;3.53;;
39442;SDS011;25147;52.142;9.960;2023-10-13T09:31:47;6.22;;;3.67;;
39442;SDS011;25147;52.142;9.960;2023-10-13T09:34:30;5.63;;;3.83;;
39442;SDS011;25147;52.142;9.960;2023-10-13T09:37:02;6.35;;;4.32;;
39442;SDS011;25147;52.142;9.960;2023-10-13T09:39:30;4.97;;;3.35;;
39442;SDS011;25147;52.142;9.960;2023-10-13T09:42:06;6.32;;;4.10;;
39442;SDS011;25147;52.142;9.960;2023-10-13T09:44:46;4.35;;;3.55;;
39442;SDS011;25147;52.142;9.960;2023-10-13T09:47:21;7.03;;;4.15;;
39442;SDS011;25147;52.142;9.960;2023-10-13T09:49:58;4.78;;;3.70;;
39442;SDS011;25147;52.142;9.960;2023-10-13T09:52:30;6.45;;;3.85;;
39442;SDS011;25147;52.142;9.960;2023-10-13T09:55:00;7.47;;;4.10;;
39442;SDS011;25147;52.142;9.960;2023-10-13T09:57:43;10.80;;;4.00;;
39442;SDS011;25147;52.142;9.960;2023-10-13T10:00:23;5.75;;;4.00;;
39442;SDS011;25147;52.142;9.960;2023-10-13T10:02:55;7.40;;;4.32;;
39442;SDS011;25147;52.142;9.960;2023-10-13T10:05:33;9.25;;;4.13;;
39442;SDS011;25147;52.142;9.960;2023-10-13T10:08:03;8.32;;;4.28;;
39442;SDS011;25147;52.142;9.960;2023-10-13T10:10:47;5.85;;;4.15;;
39442;SDS011;25147;52.142;9.960;2023-10-13T10:13:25;7.68;;;3.75;;
39442;SDS011;25147;52.142;9.960;2023-10-13T10:16:02;9.20;;;4.13;;
39442;SDS011;25147;52.142;9.960;2023-10-13T10:18:40;9.00;;;4.53;;
39442;SDS011;25147;52.142;9.960;2023-10-13T10:21:10;11.70;;;4.45;;
39442;SDS011;25147;52.142;9.960;2023-10-13T10:23:40;10.45;;;4.68;;
39442;SDS011;25147;52.142;9.960;2023-10-13T10:26:10;10.55;;;4.68;;
39442;SDS011;25147;52.142;9.960;2023-10-13T10:28:39;10.30;;;4.72;;
39442;SDS011;25147;52.142;9.960;2023-10-13T10:31:09;7.60;;;4.45;;
39442;SDS011;25147;52.142;9.960;2023-10-13T10:33:42;9.50;;;4.38;;
39442;SDS011;25147;52.142;9.960;2023-10-13T10:36:13;8.07;;;4.13;;
39442;SDS011;25147;52.142;9.960;2023-10-13T10:38:53;10.32;;;4.90;;
39442;SDS011;25147;52.142;9.960;2023-10-13T10:41:27;8.93;;;4.40;;
39442;SDS011;25147;52.142;9.960;2023-10-13T10:44:10;13.55;;;5.15;;
39442;SDS011;25147;52.142;9.960;2023-10-13T10:46:43;11.52;;;5.00;;
39442;SDS011;25147;52.142;9.960;2023-10-13T10:49:23;8.43;;;4.93;;
39442;SDS011;25147;52.142;9.960;2023-10-13T10:51:58;6.00;;;4.90;;
39442;SDS011;25147;52.142;9.960;2023-10-13T10:54:30;9.38;;;5.25;;
39442;SDS011;25147;52.142;9.960;2023-10-13T10:56:58;11.98;;;5.43;;
39442;SDS011;25147;52.142;9.960;2023-10-13T10:59:36;9.35;;;5.32;;
39442;SDS011;25147;52.142;9.960;2023-10-13T11:02:04;12.75;;;5.40;;
39442;SDS011;25147;52.142;9.960;2023-10-13T11:04:34;6.97;;;5.05;;
39442;SDS011;25147;52.142;9.960;2023-10-13T11:07:07;9.57;;;5.20;;
39442;SDS011;25147;52.142;9.960;2023-10-13T11:09:35;9.63;;;5.43;;
39442;SDS011;25147;52.142;9.960;2023-10-13T11:12:11;9.63;;;5.38;;
39442;SDS011;25147;52.142;9.960;2023-10-13T11:14:59;13.30;;;5.10;;
39442;SDS011;25147;52.142;9.960;2023-10-13T11:17:27;10.68;;;5.30;;
39442;SDS011;25147;52.142;9.960;2023-10-13T11:20:11;12.23;;;5.70;;
39442;SDS011;25147;52.142;9.960;2023-10-13T11:22:47;10.48;;;5.25;;
39442;SDS011;25147;52.142;9.960;2023-10-13T11:25:22;10.80;;;5.28;;
39442;SDS011;25147;52.142;9.960;2023-10-13T11:27:55;12.43;;;6.03;;
39442;SDS011;25147;52.142;9.960;2023-10-13T11:30:24;10.02;;;5.40;;
39442;SDS011;25147;52.142;9.960;2023-10-13T11:33:07;10.35;;;5.07;;
39442;SDS011;25147;52.142;9.960;2023-10-13T11:35:35;11.60;;;6.15;;
39442;SDS011;25147;52.142;9.960;2023-10-13T11:38:22;12.00;;;5.55;;
39442;SDS011;25147;52.142;9.960;2023-10-13T11:40:53;8.23;;;5.20;;
39442;SDS011;25147;52.142;9.960;2023-10-13T11:43:33;11.68;;;5.70;;
39442;SDS011;25147;52.142;9.960;2023-10-13T11:46:17;10.95;;;6.05;;
39442;SDS011;25147;52.142;9.960;2023-10-13T11:49:06;10.30;;;5.18;;
39442;SDS011;25147;52.142;9.960;2023-10-13T11:51:43;11.38;;;5.55;;
39442;SDS011;25147;52.142;9.960;2023-10-13T11:54:13;10.90;;;5.60;;
39442;SDS011;25147;52.142;9.960;2023-10-13T11:56:40;8.80;;;4.93;;
39442;SDS011;25147;52.142;9.960;2023-10-13T11:59:08;17.60;;;6.28;;
39442;SDS011;25147;52.142;9.960;2023-10-13T12:01:42;16.33;;;5.78;;
39442;SDS011;25147;52.142;9.960;2023-10-13T12:04:27;11.98;;;5.32;;
39442;SDS011;25147;52.142;9.960;2023-10-13T12:06:58;15.77;;;5.57;;
39442;SDS011;25147;52.142;9.960;2023-10-13T12:09:41;16.33;;;6.25;;
39442;SDS011;25147;52.142;9.960;2023-10-13T12:12:19;11.02;;;5.50;;
39442;SDS011;25147;52.142;9.960;2023-10-13T12:14:46;9.23;;;5.30;;
39442;SDS011;25147;52.142;9.960;2023-10-13T12:17:20;14.23;;;6.20;;
39442;SDS011;25147;52.142;9.960;2023-10-13T12:19:53;11.27;;;5.28;;
39442;SDS011;25147;52.142;9.960;2023-10-13T12:22:22;13.57;;;5.97;;
39442;SDS011;25147;52.142;9.960;2023-10-13T12:24:55;10.38;;;5.57;;
39442;SDS011;25147;52.142;9.960;2023-10-13T12:27:23;10.32;;;5.60;;
39442;SDS011;25147;52.142;9.960;2023-10-13T12:30:00;14.52;;;5.85;;
39442;SDS011;25147;52.142;9.960;2023-10-13T12:32:32;13.73;;;6.50;;
39442;SDS011;25147;52.142;9.960;2023-10-13T12:35:00;11.70;;;5.60;;
39442;SDS011;25147;52.142;9.960;2023-10-13T12:37:49;14.38;;;5.95;;
39442;SDS011;25147;52.142;9.960;2023-10-13T12:40:19;12.55;;;5.18;;
39442;SDS011;25147;52.142;9.960;2023-10-13T12:43:04;10.50;;;5.95;;
39442;SDS011;25147;52.142;9.960;2023-10-13T12:45:50;10.80;;;5.40;;
39442;SDS011;25147;52.142;9.960;2023-10-13T12:48:35;14.52;;;5.78;;
39442;SDS011;25147;52.142;9.960;2023-10-13T12:51:29;11.98;;;6.05;;
39442;SDS011;25147;52.142;9.960;2023-10-13T12:54:17;10.57;;;5.55;;
39442;SDS011;25147;52.142;9.960;2023-10-13T12:56:50;17.20;;;6.50;;
39442;SDS011;25147;52.142;9.960;2023-10-13T12:59:25;12.48;;;6.28;;
39442;SDS011;25147;52.142;9.960;2023-10-13T13:01:53;12.57;;;5.95;;
39442;SDS011;25147;52.142;9.960;2023-10-13T13:04:27;9.30;;;5.82;;
39442;SDS011;25147;52.142;9.960;2023-10-13T13:07:09;15.75;;;5.45;;
39442;SDS011;25147;52.142;9.960;2023-10-13T13:09:39;9.48;;;4.70;;
39442;SDS011;25147;52.142;9.960;2023-10-13T13:12:08;11.95;;;5.70;;
39442;SDS011;25147;52.142;9.960;2023-10-13T13:14:38;14.23;;;5.75;;
39442;SDS011;25147;52.142;9.960;2023-10-13T13:17:13;15.85;;;5.93;;
39442;SDS011;25147;52.142;9.960;2023-10-13T13:19:40;11.95;;;5.68;;
39442;SDS011;25147;52.142;9.960;2023-10-13T13:22:10;11.90;;;5.70;;
39442;SDS011;25147;52.142;9.960;2023-10-13T13:24:38;10.02;;;5.60;;
39442;SDS011;25147;52.142;9.960;2023-10-13T13:27:14;15.07;;;6.05;;
39442;SDS011;25147;52.142;9.960;2023-10-13T13:29:45;12.05;;;6.15;;
39442;SDS011;25147;52.142;9.960;2023-10-13T13:32:15;8.20;;;5.95;;
39442;SDS011;25147;52.142;9.960;2023-10-13T13:34:44;11.20;;;5.88;;
39442;SDS011;25147;52.142;9.960;2023-10-13T13:37:20;7.82;;;5.82;;
39442;SDS011;25147;52.142;9.960;2023-10-13T13:39:51;13.90;;;6.28;;
39442;SDS011;25147;52.142;9.960;2023-10-13T13:42:51;14.05;;;6.22;;
39442;SDS011;25147;52.142;9.960;2023-10-13T13:45:22;12.23;;;6.15;;
39442;SDS011;25147;52.142;9.960;2023-10-13T13:47:53;11.80;;;5.82;;
39442;SDS011;25147;52.142;9.960;2023-10-13T13:50:21;13.95;;;6.10;;
39442;SDS011;25147;52.142;9.960;2023-10-13T13:52:52;8.13;;;5.28;;
39442;SDS011;25147;52.142;9.960;2023-10-13T13:55:34;12.38;;;5.90;;
39442;SDS011;25147;52.142;9.960;2023-10-13T13:58:09;13.73;;;6.97;;
39442;SDS011;25147;52.142;9.960;2023-10-13T14:00:38;13.57;;;6.10;;
39442;SDS011;25147;52.142;9.960;2023-10-13T14:03:13;11.35;;;5.72;;
39442;SDS011;25147;52.142;9.960;2023-10-13T14:05:56;11.00;;;6.22;;
39442;SDS011;25147;52.142;9.960;2023-10-13T14:08:29;12.27;;;6.00;;
39442;SDS011;25147;52.142;9.960;2023-10-13T14:10:57;13.07;;;5.85;;
39442;SDS011;25147;52.142;9.960;2023-10-13T14:13:48;12.57;;;6.05;;
39442;SDS011;25147;52.142;9.960;2023-10-13T14:16:15;11.13;;;6.00;;
39442;SDS011;25147;52.142;9.960;2023-10-13T14:18:44;12.70;;;6.50;;
39442;SDS011;25147;52.142;9.960;2023-10-13T14:21:15;10.40;;;5.68;;
39442;SDS011;25147;52.142;9.960;2023-10-13T14:23:45;13.82;;;6.25;;
39442;SDS011;25147;52.142;9.960;2023-10-13T14:26:13;16.15;;;6.53;;
39442;SDS011;25147;52.142;9.960;2023-10-13T14:28:55;10.25;;;5.78;;
39442;SDS011;25147;52.142;9.960;2023-10-13T14:31:31;11.63;;;6.25;;
39442;SDS011;25147;52.142;9.960;2023-10-13T14:33:59;14.75;;;6.25;;
39442;SDS011;25147;52.142;9.960;2023-10-13T14:36:26;10.38;;;6.43;;
39442;SDS011;25147;52.142;9.960;2023-10-13T14:38:54;12.77;;;5.75;;
39442;SDS011;25147;52.142;9.960;2023-10-13T14:41:21;13.05;;;6.88;;
39442;SDS011;25147;52.142;9.960;2023-10-13T14:43:55;12.90;;;6.28;;
39442;SDS011;25147;52.142;9.960;2023-10-13T14:46:30;17.08;;;6.63;;
39442;SDS011;25147;52.142;9.960;2023-10-13T14:49:07;11.40;;;5.88;;
39442;SDS011;25147;52.142;9.960;2023-10-13T14:51:36;12.48;;;6.15;;
39442;SDS011;25147;52.142;9.960;2023-10-13T14:54:05;10.82;;;6.03;;
39442;SDS011;25147;52.142;9.960;2023-10-13T14:56:32;11.02;;;6.40;;
39442;SDS011;25147;52.142;9.960;2023-10-13T14:59:01;12.68;;;5.65;;
39442;SDS011;25147;52.142;9.960;2023-10-13T15:01:30;12.70;;;6.00;;
39442;SDS011;25147;52.142;9.960;2023-10-13T15:03:57;14.38;;;6.20;;
39442;SDS011;25147;52.142;9.960;2023-10-13T15:06:24;14.90;;;6.22;;
39442;SDS011;25147;52.142;9.960;2023-10-13T15:08:54;12.30;;;5.95;;
39442;SDS011;25147;52.142;9.960;2023-10-13T15:11:22;15.15;;;5.75;;
39442;SDS011;25147;52.142;9.960;2023-10-13T15:13:52;10.35;;;6.40;;
39442;SDS011;25147;52.142;9.960;2023-10-13T15:16:22;13.63;;;6.18;;
39442;SDS011;25147;52.142;9.960;2023-10-13T15:18:50;14.73;;;6.28;;
39442;SDS011;25147;52.142;9.960;2023-10-13T15:21:19;11.88;;;6.30;;
39442;SDS011;25147;52.142;9.960;2023-10-13T15:23:46;12.23;;;6.15;;
39442;SDS011;25147;52.142;9.960;2023-10-13T15:26:13;12.52;;;5.65;;